sensor_id;sensor_type;location;lat;lon;timestamp;temperature;humidity
19088;DHT22;9676;50.916;13.352;2024-01-07T00:00:07;3.70;99.90
19088;DHT22;9676;50.916;13.352;2024-01-07T00:02:57;3.60;99.90
19088;DHT22;9676;50.916;13.352;2024-01-07T00:05:47;3.60;99.90
19088;DHT22;9676;50.916;13.352;2024-01-07T00:08:36;3.60;99.90
19088;DHT22;9676;50.916;13.352;2024-01-07T00:11:25;3.60;99.90
19088;DHT22;9676;50.916;13.352;2024-01-07T00:14:16;3.50;99.90
19088;DHT22;9676;50.916;13.352;2024-01-07T00:17:06;3.50;99.90
19088;DHT22;9676;50.916;13.352;2024-01-07T00:19:55;3.50;99.90
19088;DHT22;9676;50.916;13.352;2024-01-07T00:22:45;3.40;99.90
19088;DHT22;9676;50.916;13.352;2024-01-07T00:25:34;3.40;99.90
19088;DHT22;9676;50.916;13.352;2024-01-07T00:28:23;3.40;99.90
19088;DHT22;9676;50.916;13.352;2024-01-07T00:31:14;3.30;99.90
19088;DHT22;9676;50.916;13.352;2024-01-07T00:34:04;3.30;99.90
19088;DHT22;9676;50.916;13.352;2024-01-07T00:36:53;3.30;99.90
19088;DHT22;9676;50.916;13.352;2024-01-07T00:39:43;3.20;99.90
19088;DHT22;9676;50.916;13.352;2024-01-07T00:42:33;3.20;99.90
19088;DHT22;9676;50.916;13.352;2024-01-07T00:45:23;3.20;99.90
19088;DHT22;9676;50.916;13.352;2024-01-07T00:48:14;3.20;99.90
19088;DHT22;9676;50.916;13.352;2024-01-07T00:51:04;3.20;99.90
19088;DHT22;9676;50.916;13.352;2024-01-07T00:53:53;3.20;99.90
19088;DHT22;9676;50.916;13.352;2024-01-07T00:56:42;3.20;99.90
19088;DHT22;9676;50.916;13.352;2024-01-07T00:59:32;3.20;99.90
19088;DHT22;9676;50.916;13.352;2024-01-07T01:02:21;3.20;99.90
19088;DHT22;9676;50.916;13.352;2024-01-07T01:05:12;3.10;99.90
19088;DHT22;9676;50.916;13.352;2024-01-07T01:08:02;3.10;99.90
19088;DHT22;9676;50.916;13.352;2024-01-07T01:10:51;3.10;99.90
19088;DHT22;9676;50.916;13.352;2024-01-07T01:13:41;3.10;99.90
19088;DHT22;9676;50.916;13.352;2024-01-07T01:16:30;3.10;99.90
19088;DHT22;9676;50.916;13.352;2024-01-07T01:19:20;3.10;99.90
19088;DHT22;9676;50.916;13.352;2024-01-07T01:22:11;3.10;99.90
19088;DHT22;9676;50.916;13.352;2024-01-07T01:25:00;3.10;99.90
19088;DHT22;9676;50.916;13.352;2024-01-07T01:27:51;3.10;99.90
19088;DHT22;9676;50.916;13.352;2024-01-07T01:30:40;3.10;99.90
19088;DHT22;9676;50.916;13.352;2024-01-07T01:33:30;3.10;99.90
19088;DHT22;9676;50.916;13.352;2024-01-07T01:36:20;3.00;99.90
19088;DHT22;9676;50.916;13.352;2024-01-07T01:39:10;3.00;99.90
19088;DHT22;9676;50.916;13.352;2024-01-07T01:42:00;3.00;99.90
19088;DHT22;9676;50.916;13.352;2024-01-07T01:44:49;3.00;99.90
19088;DHT22;9676;50.916;13.352;2024-01-07T01:47:40;3.00;99.90
19088;DHT22;9676;50.916;13.352;2024-01-07T01:50:29;3.00;99.90
19088;DHT22;9676;50.916;13.352;2024-01-07T01:53:19;3.00;99.90
19088;DHT22;9676;50.916;13.352;2024-01-07T01:56:11;3.00;99.90
19088;DHT22;9676;50.916;13.352;2024-01-07T01:59:00;2.90;99.90
19088;DHT22;9676;50.916;13.352;2024-01-07T02:01:49;2.90;99.90
19088;DHT22;9676;50.916;13.352;2024-01-07T02:04:39;2.90;99.90
19088;DHT22;9676;50.916;13.352;2024-01-07T02:07:29;2.90;99.90
19088;DHT22;9676;50.916;13.352;2024-01-07T02:10:19;2.80;99.90
19088;DHT22;9676;50.916;13.352;2024-01-07T02:13:10;2.80;99.90
19088;DHT22;9676;50.916;13.352;2024-01-07T02:15:59;2.80;99.90
19088;DHT22;9676;50.916;13.352;2024-01-07T02:18:50;2.80;99.90
19088;DHT22;9676;50.916;13.352;2024-01-07T02:21:39;2.70;99.90
19088;DHT22;9676;50.916;13.352;2024-01-07T02:24:30;2.60;99.90
19088;DHT22;9676;50.916;13.352;2024-01-07T02:27:20;2.60;99.90
19088;DHT22;9676;50.916;13.352;2024-01-07T02:30:10;2.60;99.90
19088;DHT22;9676;50.916;13.352;2024-01-07T02:33:03;2.60;99.90
19088;DHT22;9676;50.916;13.352;2024-01-07T02:35:53;2.60;99.90
19088;DHT22;9676;50.916;13.352;2024-01-07T02:38:44;2.60;99.90
19088;DHT22;9676;50.916;13.352;2024-01-07T02:41:35;2.60;99.90
19088;DHT22;9676;50.916;13.352;2024-01-07T02:44:24;2.60;99.90
19088;DHT22;9676;50.916;13.352;2024-01-07T02:47:13;2.60;99.90
19088;DHT22;9676;50.916;13.352;2024-01-07T02:50:03;2.60;99.90
19088;DHT22;9676;50.916;13.352;2024-01-07T02:52:53;2.60;99.90
19088;DHT22;9676;50.916;13.352;2024-01-07T02:55:42;2.50;99.90
19088;DHT22;9676;50.916;13.352;2024-01-07T02:58:33;2.50;99.90
19088;DHT22;9676;50.916;13.352;2024-01-07T03:01:22;2.50;99.90
19088;DHT22;9676;50.916;13.352;2024-01-07T03:04:15;2.50;99.90
19088;DHT22;9676;50.916;13.352;2024-01-07T03:07:05;2.50;99.90
19088;DHT22;9676;50.916;13.352;2024-01-07T03:09:54;2.40;99.90
19088;DHT22;9676;50.916;13.352;2024-01-07T03:12:43;2.40;99.90
19088;DHT22;9676;50.916;13.352;2024-01-07T03:15:34;2.40;99.90
19088;DHT22;9676;50.916;13.352;2024-01-07T03:18:23;2.40;99.90
19088;DHT22;9676;50.916;13.352;2024-01-07T03:21:17;2.40;99.90
19088;DHT22;9676;50.916;13.352;2024-01-07T03:24:07;2.40;99.90
19088;DHT22;9676;50.916;13.352;2024-01-07T03:26:56;2.40;99.90
19088;DHT22;9676;50.916;13.352;2024-01-07T03:29:46;2.40;99.90
19088;DHT22;9676;50.916;13.352;2024-01-07T03:32:36;2.40;99.90
19088;DHT22;9676;50.916;13.352;2024-01-07T03:35:26;2.40;99.90
19088;DHT22;9676;50.916;13.352;2024-01-07T03:38:15;2.40;99.90
19088;DHT22;9676;50.916;13.352;2024-01-07T03:41:05;2.40;99.90
19088;DHT22;9676;50.916;13.352;2024-01-07T03:43:55;2.40;99.90
19088;DHT22;9676;50.916;13.352;2024-01-07T03:46:44;2.30;99.90
19088;DHT22;9676;50.916;13.352;2024-01-07T03:49:36;2.30;99.90
19088;DHT22;9676;50.916;13.352;2024-01-07T03:52:26;2.30;99.90
19088;DHT22;9676;50.916;13.352;2024-01-07T03:55:16;2.30;99.90
19088;DHT22;9676;50.916;13.352;2024-01-07T03:58:05;2.30;99.90
19088;DHT22;9676;50.916;13.352;2024-01-07T04:00:55;2.30;99.90
19088;DHT22;9676;50.916;13.352;2024-01-07T04:03:44;2.20;99.90
19088;DHT22;9676;50.916;13.352;2024-01-07T04:06:35;2.20;99.90
19088;DHT22;9676;50.916;13.352;2024-01-07T04:09:25;2.20;99.90
19088;DHT22;9676;50.916;13.352;2024-01-07T04:12:14;2.20;99.90
19088;DHT22;9676;50.916;13.352;2024-01-07T04:15:04;2.10;99.90
19088;DHT22;9676;50.916;13.352;2024-01-07T04:17:54;2.10;99.90
19088;DHT22;9676;50.916;13.352;2024-01-07T04:20:43;2.10;99.90
19088;DHT22;9676;50.916;13.352;2024-01-07T04:23:34;2.10;99.90
19088;DHT22;9676;50.916;13.352;2024-01-07T04:26:24;2.10;99.90
19088;DHT22;9676;50.916;13.352;2024-01-07T04:29:13;2.10;99.90
19088;DHT22;9676;50.916;13.352;2024-01-07T04:32:03;2.10;99.90
19088;DHT22;9676;50.916;13.352;2024-01-07T04:34:52;2.10;99.90
19088;DHT22;9676;50.916;13.352;2024-01-07T04:37:42;2.10;99.90
19088;DHT22;9676;50.916;13.352;2024-01-07T04:40:33;2.10;99.90
19088;DHT22;9676;50.916;13.352;2024-01-07T04:43:22;2.10;99.90
19088;DHT22;9676;50.916;13.352;2024-01-07T04:46:11;2.10;99.90
19088;DHT22;9676;50.916;13.352;2024-01-07T04:49:01;2.10;99.90
19088;DHT22;9676;50.916;13.352;2024-01-07T04:51:51;2.10;99.90
19088;DHT22;9676;50.916;13.352;2024-01-07T04:54:40;2.10;99.90
19088;DHT22;9676;50.916;13.352;2024-01-07T04:57:31;2.10;99.90
19088;DHT22;9676;50.916;13.352;2024-01-07T05:00:20;2.10;99.90
19088;DHT22;9676;50.916;13.352;2024-01-07T05:03:10;2.10;99.90
19088;DHT22;9676;50.916;13.352;2024-01-07T05:05:59;2.10;99.90
19088;DHT22;9676;50.916;13.352;2024-01-07T05:08:50;2.10;99.90
19088;DHT22;9676;50.916;13.352;2024-01-07T05:11:39;2.20;99.90
19088;DHT22;9676;50.916;13.352;2024-01-07T05:14:30;2.10;99.90
19088;DHT22;9676;50.916;13.352;2024-01-07T05:17:20;2.10;99.90
19088;DHT22;9676;50.916;13.352;2024-01-07T05:20:10;2.10;99.90
19088;DHT22;9676;50.916;13.352;2024-01-07T05:23:00;2.10;99.90
19088;DHT22;9676;50.916;13.352;2024-01-07T05:25:49;2.00;99.90
19088;DHT22;9676;50.916;13.352;2024-01-07T05:28:38;2.00;99.90
19088;DHT22;9676;50.916;13.352;2024-01-07T05:31:29;2.00;99.90
19088;DHT22;9676;50.916;13.352;2024-01-07T05:34:19;2.00;99.90
19088;DHT22;9676;50.916;13.352;2024-01-07T05:37:08;1.90;99.90
19088;DHT22;9676;50.916;13.352;2024-01-07T05:39:58;1.90;99.90
19088;DHT22;9676;50.916;13.352;2024-01-07T05:42:47;1.90;99.90
19088;DHT22;9676;50.916;13.352;2024-01-07T05:45:37;1.90;99.90
19088;DHT22;9676;50.916;13.352;2024-01-07T05:48:27;1.90;99.90
19088;DHT22;9676;50.916;13.352;2024-01-07T05:51:17;1.90;99.90
19088;DHT22;9676;50.916;13.352;2024-01-07T05:54:06;1.80;99.90
19088;DHT22;9676;50.916;13.352;2024-01-07T05:56:56;1.80;99.90
19088;DHT22;9676;50.916;13.352;2024-01-07T05:59:45;1.80;99.90
19088;DHT22;9676;50.916;13.352;2024-01-07T06:02:38;1.80;99.90
19088;DHT22;9676;50.916;13.352;2024-01-07T06:05:29;1.80;99.90
19088;DHT22;9676;50.916;13.352;2024-01-07T06:08:19;1.80;99.90
19088;DHT22;9676;50.916;13.352;2024-01-07T06:11:08;1.80;99.90
19088;DHT22;9676;50.916;13.352;2024-01-07T06:13:58;1.90;99.90
19088;DHT22;9676;50.916;13.352;2024-01-07T06:16:48;1.80;99.90
19088;DHT22;9676;50.916;13.352;2024-01-07T06:19:37;1.80;99.90
19088;DHT22;9676;50.916;13.352;2024-01-07T06:22:28;1.80;99.90
19088;DHT22;9676;50.916;13.352;2024-01-07T06:25:17;1.80;99.90
19088;DHT22;9676;50.916;13.352;2024-01-07T06:28:07;1.70;99.90
19088;DHT22;9676;50.916;13.352;2024-01-07T06:30:58;1.70;99.90
19088;DHT22;9676;50.916;13.352;2024-01-07T06:33:47;1.70;99.90
19088;DHT22;9676;50.916;13.352;2024-01-07T06:36:37;1.70;99.90
19088;DHT22;9676;50.916;13.352;2024-01-07T06:39:28;1.70;99.90
19088;DHT22;9676;50.916;13.352;2024-01-07T06:42:18;1.70;99.90
19088;DHT22;9676;50.916;13.352;2024-01-07T06:45:09;1.70;99.90
19088;DHT22;9676;50.916;13.352;2024-01-07T06:47:58;1.70;99.90
19088;DHT22;9676;50.916;13.352;2024-01-07T06:50:48;1.70;99.90
19088;DHT22;9676;50.916;13.352;2024-01-07T06:53:38;1.70;99.90
19088;DHT22;9676;50.916;13.352;2024-01-07T06:56:29;1.70;99.90
19088;DHT22;9676;50.916;13.352;2024-01-07T06:59:18;1.70;99.90
19088;DHT22;9676;50.916;13.352;2024-01-07T07:02:08;1.70;99.90
19088;DHT22;9676;50.916;13.352;2024-01-07T07:04:57;1.70;99.90
19088;DHT22;9676;50.916;13.352;2024-01-07T07:07:47;1.70;99.90
19088;DHT22;9676;50.916;13.352;2024-01-07T07:10:40;1.70;99.90
19088;DHT22;9676;50.916;13.352;2024-01-07T07:13:31;1.70;99.90
19088;DHT22;9676;50.916;13.352;2024-01-07T07:16:21;1.70;99.90
19088;DHT22;9676;50.916;13.352;2024-01-07T07:19:11;1.60;99.90
19088;DHT22;9676;50.916;13.352;2024-01-07T07:22:04;1.60;99.90
19088;DHT22;9676;50.916;13.352;2024-01-07T07:24:53;1.60;99.90
19088;DHT22;9676;50.916;13.352;2024-01-07T07:27:48;1.50;99.90
19088;DHT22;9676;50.916;13.352;2024-01-07T07:30:39;1.50;99.90
19088;DHT22;9676;50.916;13.352;2024-01-07T07:33:29;1.40;99.90
19088;DHT22;9676;50.916;13.352;2024-01-07T07:36:18;1.40;99.90
19088;DHT22;9676;50.916;13.352;2024-01-07T07:39:08;1.40;99.90
19088;DHT22;9676;50.916;13.352;2024-01-07T07:41:57;1.40;99.90
19088;DHT22;9676;50.916;13.352;2024-01-07T07:44:47;1.40;99.90
19088;DHT22;9676;50.916;13.352;2024-01-07T07:47:38;1.40;99.90
19088;DHT22;9676;50.916;13.352;2024-01-07T07:50:29;1.40;99.90
19088;DHT22;9676;50.916;13.352;2024-01-07T07:53:19;1.40;99.90
19088;DHT22;9676;50.916;13.352;2024-01-07T07:56:08;1.40;99.90
19088;DHT22;9676;50.916;13.352;2024-01-07T07:58:58;1.30;99.90
19088;DHT22;9676;50.916;13.352;2024-01-07T08:01:47;1.40;99.90
19088;DHT22;9676;50.916;13.352;2024-01-07T08:04:39;1.40;99.90
19088;DHT22;9676;50.916;13.352;2024-01-07T08:07:29;1.40;99.90
19088;DHT22;9676;50.916;13.352;2024-01-07T08:10:19;1.40;99.90
19088;DHT22;9676;50.916;13.352;2024-01-07T08:13:09;1.40;99.90
19088;DHT22;9676;50.916;13.352;2024-01-07T08:15:58;1.40;99.90
19088;DHT22;9676;50.916;13.352;2024-01-07T08:18:48;1.40;99.90
19088;DHT22;9676;50.916;13.352;2024-01-07T08:21:39;1.50;99.90
19088;DHT22;9676;50.916;13.352;2024-01-07T08:24:28;1.50;99.90
19088;DHT22;9676;50.916;13.352;2024-01-07T08:27:18;1.60;99.90
19088;DHT22;9676;50.916;13.352;2024-01-07T08:30:08;1.50;99.90
19088;DHT22;9676;50.916;13.352;2024-01-07T08:33:00;1.50;99.90
19088;DHT22;9676;50.916;13.352;2024-01-07T08:35:49;1.50;99.90
19088;DHT22;9676;50.916;13.352;2024-01-07T08:38:40;1.50;99.90
19088;DHT22;9676;50.916;13.352;2024-01-07T08:41:29;1.50;99.90
19088;DHT22;9676;50.916;13.352;2024-01-07T08:44:19;1.50;99.90
19088;DHT22;9676;50.916;13.352;2024-01-07T08:47:08;1.50;99.90
19088;DHT22;9676;50.916;13.352;2024-01-07T08:49:58;1.50;99.90
19088;DHT22;9676;50.916;13.352;2024-01-07T08:52:47;1.50;99.90
19088;DHT22;9676;50.916;13.352;2024-01-07T08:55:38;1.50;99.90
19088;DHT22;9676;50.916;13.352;2024-01-07T08:58:27;1.50;99.90
19088;DHT22;9676;50.916;13.352;2024-01-07T09:01:16;1.50;99.90
19088;DHT22;9676;50.916;13.352;2024-01-07T09:04:06;1.50;99.90
19088;DHT22;9676;50.916;13.352;2024-01-07T09:06:56;1.50;99.90
19088;DHT22;9676;50.916;13.352;2024-01-07T09:09:45;1.40;99.90
19088;DHT22;9676;50.916;13.352;2024-01-07T09:12:37;1.40;99.90
19088;DHT22;9676;50.916;13.352;2024-01-07T09:15:26;1.40;99.90
19088;DHT22;9676;50.916;13.352;2024-01-07T09:18:16;1.40;99.90
19088;DHT22;9676;50.916;13.352;2024-01-07T09:21:06;1.40;99.90
19088;DHT22;9676;50.916;13.352;2024-01-07T09:23:56;1.40;99.90
19088;DHT22;9676;50.916;13.352;2024-01-07T09:26:46;1.30;99.90
19088;DHT22;9676;50.916;13.352;2024-01-07T09:29:36;1.40;99.90
19088;DHT22;9676;50.916;13.352;2024-01-07T09:32:26;1.40;99.90
19088;DHT22;9676;50.916;13.352;2024-01-07T09:35:15;1.40;99.90
19088;DHT22;9676;50.916;13.352;2024-01-07T09:38:05;1.30;99.90
19088;DHT22;9676;50.916;13.352;2024-01-07T09:40:59;1.30;99.90
19088;DHT22;9676;50.916;13.352;2024-01-07T09:43:49;1.30;99.90
19088;DHT22;9676;50.916;13.352;2024-01-07T09:46:41;1.30;99.90
19088;DHT22;9676;50.916;13.352;2024-01-07T09:49:32;1.30;99.90
19088;DHT22;9676;50.916;13.352;2024-01-07T09:52:21;1.30;99.90
19088;DHT22;9676;50.916;13.352;2024-01-07T09:55:13;1.30;99.90
19088;DHT22;9676;50.916;13.352;2024-01-07T09:58:16;1.30;99.90
19088;DHT22;9676;50.916;13.352;2024-01-07T10:01:06;1.30;99.90
19088;DHT22;9676;50.916;13.352;2024-01-07T10:03:57;1.30;99.90
19088;DHT22;9676;50.916;13.352;2024-01-07T10:06:47;1.30;99.90
19088;DHT22;9676;50.916;13.352;2024-01-07T10:09:36;1.40;99.90
19088;DHT22;9676;50.916;13.352;2024-01-07T10:12:26;1.30;99.90
19088;DHT22;9676;50.916;13.352;2024-01-07T10:15:16;1.30;99.90
19088;DHT22;9676;50.916;13.352;2024-01-07T10:18:06;1.40;99.90
19088;DHT22;9676;50.916;13.352;2024-01-07T10:21:02;1.40;99.90
19088;DHT22;9676;50.916;13.352;2024-01-07T10:24:07;1.40;99.90
19088;DHT22;9676;50.916;13.352;2024-01-07T10:26:57;1.40;99.90
19088;DHT22;9676;50.916;13.352;2024-01-07T10:29:47;1.40;99.90
19088;DHT22;9676;50.916;13.352;2024-01-07T10:32:38;1.40;99.90
19088;DHT22;9676;50.916;13.352;2024-01-07T10:35:33;1.40;99.90
19088;DHT22;9676;50.916;13.352;2024-01-07T10:38:25;1.40;99.90
19088;DHT22;9676;50.916;13.352;2024-01-07T10:41:15;1.50;99.90
19088;DHT22;9676;50.916;13.352;2024-01-07T10:44:06;1.40;99.90
19088;DHT22;9676;50.916;13.352;2024-01-07T10:46:56;1.40;99.90
19088;DHT22;9676;50.916;13.352;2024-01-07T10:49:49;1.40;99.90
19088;DHT22;9676;50.916;13.352;2024-01-07T10:52:40;1.40;99.90
19088;DHT22;9676;50.916;13.352;2024-01-07T10:55:34;1.40;99.90
19088;DHT22;9676;50.916;13.352;2024-01-07T10:58:25;1.40;99.90
19088;DHT22;9676;50.916;13.352;2024-01-07T11:01:15;1.30;99.90
19088;DHT22;9676;50.916;13.352;2024-01-07T11:04:10;1.30;99.90
19088;DHT22;9676;50.916;13.352;2024-01-07T11:07:12;1.30;99.90
19088;DHT22;9676;50.916;13.352;2024-01-07T11:10:34;1.30;99.90
19088;DHT22;9676;50.916;13.352;2024-01-07T11:13:39;1.30;99.90
19088;DHT22;9676;50.916;13.352;2024-01-07T11:16:41;1.30;99.90
19088;DHT22;9676;50.916;13.352;2024-01-07T11:19:31;1.40;99.90
19088;DHT22;9676;50.916;13.352;2024-01-07T11:22:22;1.40;99.90
19088;DHT22;9676;50.916;13.352;2024-01-07T11:25:29;1.40;99.90
19088;DHT22;9676;50.916;13.352;2024-01-07T11:28:47;1.50;99.90
19088;DHT22;9676;50.916;13.352;2024-01-07T11:31:46;1.50;98.70
19088;DHT22;9676;50.916;13.352;2024-01-07T11:34:39;1.50;99.50
19088;DHT22;9676;50.916;13.352;2024-01-07T11:37:30;1.50;98.90
19088;DHT22;9676;50.916;13.352;2024-01-07T11:40:19;1.50;98.70
19088;DHT22;9676;50.916;13.352;2024-01-07T11:43:09;1.50;98.60
19088;DHT22;9676;50.916;13.352;2024-01-07T11:46:00;1.40;98.20
19088;DHT22;9676;50.916;13.352;2024-01-07T11:48:52;1.40;97.50
19088;DHT22;9676;50.916;13.352;2024-01-07T11:51:46;1.30;97.80
19088;DHT22;9676;50.916;13.352;2024-01-07T11:54:36;1.30;98.30
19088;DHT22;9676;50.916;13.352;2024-01-07T11:57:25;1.20;98.20
19088;DHT22;9676;50.916;13.352;2024-01-07T12:00:15;1.20;98.10
19088;DHT22;9676;50.916;13.352;2024-01-07T12:03:06;1.20;98.10
19088;DHT22;9676;50.916;13.352;2024-01-07T12:05:56;1.20;98.20
19088;DHT22;9676;50.916;13.352;2024-01-07T12:08:46;1.20;97.50
19088;DHT22;9676;50.916;13.352;2024-01-07T12:11:36;1.20;95.90
19088;DHT22;9676;50.916;13.352;2024-01-07T12:14:29;1.10;96.80
19088;DHT22;9676;50.916;13.352;2024-01-07T12:17:20;1.00;96.90
19088;DHT22;9676;50.916;13.352;2024-01-07T12:20:11;1.00;97.10
19088;DHT22;9676;50.916;13.352;2024-01-07T12:23:05;1.00;96.70
19088;DHT22;9676;50.916;13.352;2024-01-07T12:26:07;1.10;95.60
19088;DHT22;9676;50.916;13.352;2024-01-07T12:28:58;1.00;94.90
19088;DHT22;9676;50.916;13.352;2024-01-07T12:31:51;1.00;96.30
19088;DHT22;9676;50.916;13.352;2024-01-07T12:34:41;1.00;96.00
19088;DHT22;9676;50.916;13.352;2024-01-07T12:37:33;0.90;95.40
19088;DHT22;9676;50.916;13.352;2024-01-07T12:40:24;0.90;95.90
19088;DHT22;9676;50.916;13.352;2024-01-07T12:43:15;0.90;95.10
19088;DHT22;9676;50.916;13.352;2024-01-07T12:46:04;0.90;94.70
19088;DHT22;9676;50.916;13.352;2024-01-07T12:48:55;0.90;95.50
19088;DHT22;9676;50.916;13.352;2024-01-07T12:51:45;0.80;95.70
19088;DHT22;9676;50.916;13.352;2024-01-07T12:54:37;0.80;96.50
19088;DHT22;9676;50.916;13.352;2024-01-07T12:57:27;0.90;96.40
19088;DHT22;9676;50.916;13.352;2024-01-07T13:00:17;0.90;96.70
19088;DHT22;9676;50.916;13.352;2024-01-07T13:03:07;0.90;95.90
19088;DHT22;9676;50.916;13.352;2024-01-07T13:06:01;0.90;95.50
19088;DHT22;9676;50.916;13.352;2024-01-07T13:08:51;0.90;95.00
19088;DHT22;9676;50.916;13.352;2024-01-07T13:11:42;0.80;95.10
19088;DHT22;9676;50.916;13.352;2024-01-07T13:14:31;0.80;94.70
19088;DHT22;9676;50.916;13.352;2024-01-07T13:17:21;0.80;94.90
19088;DHT22;9676;50.916;13.352;2024-01-07T13:20:10;0.80;94.90
19088;DHT22;9676;50.916;13.352;2024-01-07T13:23:00;0.80;95.30
19088;DHT22;9676;50.916;13.352;2024-01-07T13:25:52;0.80;96.10
19088;DHT22;9676;50.916;13.352;2024-01-07T13:28:42;0.90;96.30
19088;DHT22;9676;50.916;13.352;2024-01-07T13:31:32;0.90;96.50
19088;DHT22;9676;50.916;13.352;2024-01-07T13:34:21;1.00;96.20
19088;DHT22;9676;50.916;13.352;2024-01-07T13:37:11;1.00;96.60
19088;DHT22;9676;50.916;13.352;2024-01-07T13:40:01;1.10;95.80
19088;DHT22;9676;50.916;13.352;2024-01-07T13:42:51;1.10;95.30
19088;DHT22;9676;50.916;13.352;2024-01-07T13:45:43;1.10;95.70
19088;DHT22;9676;50.916;13.352;2024-01-07T13:48:32;1.10;96.00
19088;DHT22;9676;50.916;13.352;2024-01-07T13:51:22;1.10;96.00
19088;DHT22;9676;50.916;13.352;2024-01-07T13:54:12;1.10;95.60
19088;DHT22;9676;50.916;13.352;2024-01-07T13:57:02;1.10;95.30
19088;DHT22;9676;50.916;13.352;2024-01-07T13:59:52;1.10;94.60
19088;DHT22;9676;50.916;13.352;2024-01-07T14:02:43;1.00;94.00
19088;DHT22;9676;50.916;13.352;2024-01-07T14:05:33;1.00;94.60
19088;DHT22;9676;50.916;13.352;2024-01-07T14:08:22;1.00;94.20
19088;DHT22;9676;50.916;13.352;2024-01-07T14:11:12;0.90;93.90
19088;DHT22;9676;50.916;13.352;2024-01-07T14:14:01;0.90;93.90
19088;DHT22;9676;50.916;13.352;2024-01-07T14:16:51;0.90;93.60
19088;DHT22;9676;50.916;13.352;2024-01-07T14:19:41;0.80;93.30
19088;DHT22;9676;50.916;13.352;2024-01-07T14:22:34;0.80;93.10
19088;DHT22;9676;50.916;13.352;2024-01-07T14:25:23;0.70;93.30
19088;DHT22;9676;50.916;13.352;2024-01-07T14:28:13;0.70;93.90
19088;DHT22;9676;50.916;13.352;2024-01-07T14:31:02;0.70;94.20
19088;DHT22;9676;50.916;13.352;2024-01-07T14:33:52;0.70;94.80
19088;DHT22;9676;50.916;13.352;2024-01-07T14:36:43;0.70;94.60
19088;DHT22;9676;50.916;13.352;2024-01-07T14:39:33;0.70;94.30
19088;DHT22;9676;50.916;13.352;2024-01-07T14:42:22;0.70;94.40
19088;DHT22;9676;50.916;13.352;2024-01-07T14:45:11;0.70;94.20
19088;DHT22;9676;50.916;13.352;2024-01-07T14:48:01;0.70;94.60
19088;DHT22;9676;50.916;13.352;2024-01-07T14:50:51;0.70;95.10
19088;DHT22;9676;50.916;13.352;2024-01-07T14:53:41;0.70;94.50
19088;DHT22;9676;50.916;13.352;2024-01-07T14:56:31;0.70;94.50
19088;DHT22;9676;50.916;13.352;2024-01-07T14:59:20;0.70;94.80
19088;DHT22;9676;50.916;13.352;2024-01-07T15:02:11;0.70;95.10
19088;DHT22;9676;50.916;13.352;2024-01-07T15:05:02;0.70;94.90
19088;DHT22;9676;50.916;13.352;2024-01-07T15:07:51;0.70;94.50
19088;DHT22;9676;50.916;13.352;2024-01-07T15:10:42;0.80;94.80
19088;DHT22;9676;50.916;13.352;2024-01-07T15:13:32;0.70;93.90
19088;DHT22;9676;50.916;13.352;2024-01-07T15:16:22;0.70;93.70
19088;DHT22;9676;50.916;13.352;2024-01-07T15:19:12;0.60;93.60
19088;DHT22;9676;50.916;13.352;2024-01-07T15:22:01;0.60;93.80
19088;DHT22;9676;50.916;13.352;2024-01-07T15:24:51;0.60;94.00
19088;DHT22;9676;50.916;13.352;2024-01-07T15:27:42;0.60;93.80
19088;DHT22;9676;50.916;13.352;2024-01-07T15:30:33;0.60;94.60
19088;DHT22;9676;50.916;13.352;2024-01-07T15:33:22;0.60;94.70
19088;DHT22;9676;50.916;13.352;2024-01-07T15:36:12;0.60;94.70
19088;DHT22;9676;50.916;13.352;2024-01-07T15:39:01;0.60;94.50
19088;DHT22;9676;50.916;13.352;2024-01-07T15:41:51;0.60;94.40
19088;DHT22;9676;50.916;13.352;2024-01-07T15:44:44;0.60;94.50
19088;DHT22;9676;50.916;13.352;2024-01-07T15:47:33;0.60;94.90
19088;DHT22;9676;50.916;13.352;2024-01-07T15:50:26;0.60;95.00
19088;DHT22;9676;50.916;13.352;2024-01-07T15:53:16;0.60;95.20
19088;DHT22;9676;50.916;13.352;2024-01-07T15:56:06;0.60;95.10
19088;DHT22;9676;50.916;13.352;2024-01-07T15:58:57;0.70;95.30
19088;DHT22;9676;50.916;13.352;2024-01-07T16:01:48;0.70;95.10
19088;DHT22;9676;50.916;13.352;2024-01-07T16:04:38;0.70;95.10
19088;DHT22;9676;50.916;13.352;2024-01-07T16:07:27;0.70;95.40
19088;DHT22;9676;50.916;13.352;2024-01-07T16:10:17;0.70;95.60
19088;DHT22;9676;50.916;13.352;2024-01-07T16:13:07;0.70;95.50
19088;DHT22;9676;50.916;13.352;2024-01-07T16:15:56;0.80;95.80
19088;DHT22;9676;50.916;13.352;2024-01-07T16:18:48;0.80;95.80
19088;DHT22;9676;50.916;13.352;2024-01-07T16:21:37;0.80;95.70
19088;DHT22;9676;50.916;13.352;2024-01-07T16:24:28;0.90;96.00
19088;DHT22;9676;50.916;13.352;2024-01-07T16:27:27;0.90;96.00
19088;DHT22;9676;50.916;13.352;2024-01-07T16:30:19;0.90;96.00
19088;DHT22;9676;50.916;13.352;2024-01-07T16:33:08;1.00;96.20
19088;DHT22;9676;50.916;13.352;2024-01-07T16:36:00;1.00;95.80
19088;DHT22;9676;50.916;13.352;2024-01-07T16:38:49;1.00;95.70
19088;DHT22;9676;50.916;13.352;2024-01-07T16:41:39;1.00;95.70
19088;DHT22;9676;50.916;13.352;2024-01-07T16:44:28;1.00;95.00
19088;DHT22;9676;50.916;13.352;2024-01-07T16:47:18;1.00;95.10
19088;DHT22;9676;50.916;13.352;2024-01-07T16:50:07;1.10;95.10
19088;DHT22;9676;50.916;13.352;2024-01-07T16:53:12;1.00;95.10
19088;DHT22;9676;50.916;13.352;2024-01-07T16:56:02;1.00;95.50
19088;DHT22;9676;50.916;13.352;2024-01-07T16:58:51;1.00;95.80
19088;DHT22;9676;50.916;13.352;2024-01-07T17:01:41;1.00;96.10
19088;DHT22;9676;50.916;13.352;2024-01-07T17:04:31;1.10;95.60
19088;DHT22;9676;50.916;13.352;2024-01-07T17:07:20;1.10;95.40
19088;DHT22;9676;50.916;13.352;2024-01-07T17:10:11;1.10;95.30
19088;DHT22;9676;50.916;13.352;2024-01-07T17:13:00;1.10;94.60
19088;DHT22;9676;50.916;13.352;2024-01-07T17:15:50;1.00;94.20
19088;DHT22;9676;50.916;13.352;2024-01-07T17:18:39;1.00;93.90
19088;DHT22;9676;50.916;13.352;2024-01-07T17:21:29;1.00;94.40
19088;DHT22;9676;50.916;13.352;2024-01-07T17:24:18;0.90;94.60
19088;DHT22;9676;50.916;13.352;2024-01-07T17:27:09;0.90;94.70
19088;DHT22;9676;50.916;13.352;2024-01-07T17:29:58;0.90;94.50
19088;DHT22;9676;50.916;13.352;2024-01-07T17:32:48;0.90;94.70
19088;DHT22;9676;50.916;13.352;2024-01-07T17:35:42;0.90;94.50
19088;DHT22;9676;50.916;13.352;2024-01-07T17:38:32;0.90;94.70
19088;DHT22;9676;50.916;13.352;2024-01-07T17:41:21;0.80;94.90
19088;DHT22;9676;50.916;13.352;2024-01-07T17:44:12;0.80;94.90
19088;DHT22;9676;50.916;13.352;2024-01-07T17:47:02;0.80;94.90
19088;DHT22;9676;50.916;13.352;2024-01-07T17:49:51;0.80;95.10
19088;DHT22;9676;50.916;13.352;2024-01-07T17:52:41;0.80;94.90
19088;DHT22;9676;50.916;13.352;2024-01-07T17:55:30;0.80;95.00
19088;DHT22;9676;50.916;13.352;2024-01-07T17:58:20;0.80;94.90
19088;DHT22;9676;50.916;13.352;2024-01-07T18:01:10;0.80;95.20
19088;DHT22;9676;50.916;13.352;2024-01-07T18:04:00;0.80;95.20
19088;DHT22;9676;50.916;13.352;2024-01-07T18:06:49;0.80;95.20
19088;DHT22;9676;50.916;13.352;2024-01-07T18:09:39;0.80;95.30
19088;DHT22;9676;50.916;13.352;2024-01-07T18:12:29;0.70;95.30